Time;durP1;ratioP1;P1;durP2;ratioP2;P2;SDS_P1;SDS_P2;PMS_P1;PMS_P2;Temp;Humidity;BMP_temperature;BMP_pressure;BME280_temperature;BME280_humidity;BME280_pressure;Samples;Min_cycle;Max_cycle;Signal;HPM_P1;HPM_P2
2021/06/14 00:03:13;;;;;;;2.15;0.85;;;;;;;;;;5092876;23;20318;-70
2021/06/14 00:05:39;;;;;;;1.80;0.90;;;;;;;;;;4943097;28;20123;-70
2021/06/14 00:08:08;;;;;;;2.05;1.00;;;;;;;;;;4922510;29;20530;-70
2021/06/14 00:10:33;;;;;;;2.08;1.00;;;;;;;;;;4940971;28;20032;-70
2021/06/14 00:12:58;;;;;;;2.40;1.00;;;;;;;;;;4941903;28;20417;-70
2021/06/14 00:15:24;;;;;;;2.78;1.00;;;;;;;;;;4920815;29;20119;-70
2021/06/14 00:17:49;;;;;;;2.35;0.90;;;;;;;;;;4917889;29;20120;-70
2021/06/14 00:20:15;;;;;;;1.60;0.90;;;;;;;;;;4916881;29;20126;-70
2021/06/14 00:22:40;;;;;;;1.58;0.95;;;;;;;;;;4910522;29;20326;-70
2021/06/14 00:25:06;;;;;;;2.15;1.00;;;;;;;;;;4917894;29;20028;-71
2021/06/14 00:27:31;;;;;;;1.80;1.00;;;;;;;;;;4914671;29;20051;-71
2021/06/14 00:29:57;;;;;;;1.40;0.90;;;;;;;;;;4921160;29;20015;-70
2021/06/14 00:32:22;;;;;;;0.80;0.77;;;;;;;;;;4923140;29;20110;-70
2021/06/14 00:34:47;;;;;;;1.57;0.90;;;;;;;;;;4923641;29;20024;-70
2021/06/14 00:37:12;;;;;;;1.10;1.00;;;;;;;;;;4920326;29;20031;-70
2021/06/14 00:39:37;;;;;;;1.63;1.07;;;;;;;;;;4940906;28;20283;-70
2021/06/14 00:42:03;;;;;;;1.47;1.07;;;;;;;;;;4917917;29;20024;-70
2021/06/14 00:44:28;;;;;;;1.40;0.90;;;;;;;;;;4921636;29;20789;-71
2021/06/14 00:46:53;;;;;;;1.87;0.90;;;;;;;;;;4922783;29;20101;-70
2021/06/14 00:49:19;;;;;;;1.48;1.00;;;;;;;;;;4922286;29;20278;-70
2021/06/14 00:51:44;;;;;;;1.10;0.90;;;;;;;;;;4943201;28;20530;-72
2021/06/14 00:54:09;;;;;;;3.27;0.93;;;;;;;;;;4915994;29;20024;-72
2021/06/14 00:56:35;;;;;;;2.10;0.95;;;;;;;;;;4917376;29;20820;-72
2021/06/14 00:59:00;;;;;;;2.67;0.90;;;;;;;;;;4919002;29;20028;-72
2021/06/14 01:01:25;;;;;;;1.63;0.87;;;;;;;;;;4918921;29;20028;-71
2021/06/14 01:03:50;;;;;;;2.37;1.00;;;;;;;;;;4927109;29;20300;-72
2021/06/14 01:06:16;;;;;;;1.57;0.90;;;;;;;;;;4921857;29;20035;-72
2021/06/14 01:08:42;;;;;;;5.35;1.20;;;;;;;;;;4920584;29;20650;-72
2021/06/14 01:11:16;;;;;;;1.58;1.10;;;;;;;;;;4921380;29;20038;-72
2021/06/14 01:13:47;;;;;;;1.63;1.08;;;;;;;;;;4921159;29;20461;-72
2021/06/14 01:16:20;;;;;;;1.00;0.80;;;;;;;;;;4920237;29;20058;-70
2021/06/14 01:18:48;;;;;;;3.05;1.08;;;;;;;;;;4940115;28;20039;-70
2021/06/14 01:21:20;;;;;;;1.45;0.90;;;;;;;;;;4940946;28;20178;-71
2021/06/14 01:24:04;;;;;;;1.10;0.80;;;;;;;;;;4920318;29;20068;-70
2021/06/14 01:26:32;;;;;;;1.25;0.80;;;;;;;;;;4920539;29;20110;-70
2021/06/14 01:28:58;;;;;;;2.17;1.00;;;;;;;;;;4927654;28;20043;-71
2021/06/14 01:31:23;;;;;;;3.42;0.85;;;;;;;;;;4941866;28;20463;-71
2021/06/14 01:33:49;;;;;;;1.38;0.80;;;;;;;;;;4942401;28;20027;-71
2021/06/14 01:36:22;;;;;;;2.20;1.00;;;;;;;;;;4923770;29;20031;-71
2021/06/14 01:38:47;;;;;;;1.63;0.80;;;;;;;;;;4914360;29;20031;-71
2021/06/14 01:41:13;;;;;;;1.63;0.88;;;;;;;;;;4921912;29;20028;-70
2021/06/14 01:43:39;;;;;;;2.95;0.88;;;;;;;;;;4942739;28;20031;-70
2021/06/14 01:46:05;;;;;;;1.88;1.20;;;;;;;;;;4921362;28;20130;-70
2021/06/14 01:48:30;;;;;;;1.65;0.95;;;;;;;;;;4922659;29;20039;-70
2021/06/14 01:50:56;;;;;;;1.83;0.95;;;;;;;;;;4939132;28;20024;-70
2021/06/14 01:53:21;;;;;;;2.73;0.97;;;;;;;;;;4921033;29;20028;-70
2021/06/14 01:55:46;;;;;;;2.10;0.90;;;;;;;;;;4919656;29;20702;-70
2021/06/14 01:58:11;;;;;;;1.70;0.82;;;;;;;;;;4923424;29;20272;-70
2021/06/14 02:00:40;;;;;;;1.43;0.73;;;;;;;;;;4921428;29;20083;-70
2021/06/14 02:03:06;;;;;;;1.27;0.90;;;;;;;;;;4920159;29;20052;-71
2021/06/14 02:05:31;;;;;;;1.67;1.00;;;;;;;;;;4928188;28;20030;-70
2021/06/14 02:07:57;;;;;;;1.70;1.00;;;;;;;;;;4919578;29;20028;-71
2021/06/14 02:10:22;;;;;;;1.07;0.77;;;;;;;;;;4940017;28;20031;-71
2021/06/14 02:12:47;;;;;;;1.30;0.88;;;;;;;;;;4919154;29;20086;-70
2021/06/14 02:15:13;;;;;;;2.23;1.00;;;;;;;;;;4941182;28;20032;-71
2021/06/14 02:17:39;;;;;;;2.63;1.05;;;;;;;;;;4938764;28;20268;-71
2021/06/14 02:20:08;;;;;;;1.60;1.10;;;;;;;;;;4938097;28;20115;-71
2021/06/14 02:22:34;;;;;;;1.65;1.10;;;;;;;;;;4920235;29;20032;-72
2021/06/14 02:24:59;;;;;;;2.20;0.90;;;;;;;;;;4939123;28;20039;-71
2021/06/14 02:27:24;;;;;;;1.48;0.90;;;;;;;;;;4918264;29;20486;-71
2021/06/14 02:29:50;;;;;;;1.45;1.00;;;;;;;;;;4916485;29;20066;-71
2021/06/14 02:32:15;;;;;;;1.50;1.00;;;;;;;;;;4915926;29;20032;-71
2021/06/14 02:34:42;;;;;;;3.22;1.08;;;;;;;;;;4938092;28;20374;-71
2021/06/14 02:37:07;;;;;;;1.92;1.08;;;;;;;;;;4918061;29;20032;-71
2021/06/14 02:39:33;;;;;;;1.50;1.10;;;;;;;;;;4915115;29;20475;-71
2021/06/14 02:41:58;;;;;;;1.90;1.00;;;;;;;;;;4939521;28;20487;-71
2021/06/14 02:44:24;;;;;;;1.80;1.20;;;;;;;;;;4917004;29;20061;-71
2021/06/14 02:46:49;;;;;;;2.05;1.27;;;;;;;;;;4938525;29;20016;-70
2021/06/14 02:49:15;;;;;;;1.10;0.88;;;;;;;;;;4922084;29;20035;-71
2021/06/14 02:51:40;;;;;;;2.25;0.90;;;;;;;;;;4939000;28;20059;-71
2021/06/14 02:54:07;;;;;;;1.30;0.90;;;;;;;;;;4942101;28;20035;-70
2021/06/14 02:56:33;;;;;;;1.13;0.70;;;;;;;;;;4939597;28;20559;-71
2021/06/14 02:58:58;;;;;;;2.17;1.10;;;;;;;;;;4919222;29;20039;-71
2021/06/14 03:01:23;;;;;;;2.20;1.27;;;;;;;;;;4916135;29;20031;-71
2021/06/14 03:03:49;;;;;;;1.50;0.93;;;;;;;;;;4939092;28;20210;-71
2021/06/14 03:06:15;;;;;;;1.83;0.80;;;;;;;;;;4917026;29;20493;-71
2021/06/14 03:08:40;;;;;;;2.17;1.00;;;;;;;;;;4914328;29;20031;-71
2021/06/14 03:11:05;;;;;;;1.83;1.10;;;;;;;;;;4921556;29;20091;-71
2021/06/14 03:13:31;;;;;;;1.10;0.87;;;;;;;;;;4940787;28;20114;-70
2021/06/14 03:15:56;;;;;;;1.40;0.80;;;;;;;;;;4940914;28;20032;-71
2021/06/14 03:18:23;;;;;;;1.40;1.05;;;;;;;;;;4923152;29;20111;-71
2021/06/14 03:20:48;;;;;;;1.60;1.00;;;;;;;;;;4940985;28;20039;-71
2021/06/14 03:23:14;;;;;;;1.57;1.00;;;;;;;;;;4923955;29;20087;-71
2021/06/14 03:25:39;;;;;;;1.27;1.00;;;;;;;;;;4920359;29;20699;-71
2021/06/14 03:28:05;;;;;;;1.67;1.37;;;;;;;;;;4923579;29;20066;-71
2021/06/14 03:30:30;;;;;;;1.92;1.10;;;;;;;;;;4913739;29;20032;-70
2021/06/14 03:32:55;;;;;;;2.72;1.02;;;;;;;;;;4939302;28;20650;-71
2021/06/14 03:35:21;;;;;;;2.70;1.03;;;;;;;;;;4940951;28;20031;-71
2021/06/14 03:37:46;;;;;;;1.77;0.90;;;;;;;;;;4913489;29;20256;-71
2021/06/14 03:40:12;;;;;;;3.03;1.02;;;;;;;;;;4910812;29;20108;-69
2021/06/14 03:42:38;;;;;;;3.67;0.98;;;;;;;;;;4915920;29;20040;-70
2021/06/14 03:45:03;;;;;;;1.70;1.20;;;;;;;;;;4918601;29;20030;-71
2021/06/14 03:47:28;;;;;;;2.17;1.25;;;;;;;;;;4920361;29;20047;-71
2021/06/14 03:49:54;;;;;;;2.05;0.90;;;;;;;;;;4917845;29;20119;-73
2021/06/14 03:52:19;;;;;;;1.67;0.90;;;;;;;;;;4920238;29;20044;-70
2021/06/14 03:54:44;;;;;;;2.20;0.90;;;;;;;;;;4919815;29;21006;-71
2021/06/14 03:57:09;;;;;;;1.63;0.93;;;;;;;;;;4920546;29;20032;-70
2021/06/14 03:59:35;;;;;;;2.13;1.00;;;;;;;;;;4919966;29;20062;-72
2021/06/14 04:02:00;;;;;;;4.10;1.10;;;;;;;;;;4919505;29;20047;-71
2021/06/14 04:04:44;;;;;;;1.77;0.93;;;;;;;;;;4918785;29;20126;-71
2021/06/14 04:07:09;;;;;;;1.80;1.02;;;;;;;;;;4938129;28;20079;-72
2021/06/14 04:09:35;;;;;;;1.60;0.93;;;;;;;;;;4917337;29;20498;-72
2021/06/14 04:12:01;;;;;;;2.28;1.25;;;;;;;;;;4922103;29;20020;-71
2021/06/14 04:14:26;;;;;;;3.83;1.02;;;;;;;;;;4932572;29;20038;-71
2021/06/14 04:16:52;;;;;;;1.60;0.98;;;;;;;;;;4922291;29;20095;-70
2021/06/14 04:19:17;;;;;;;3.33;1.30;;;;;;;;;;4920449;29;20050;-71
2021/06/14 04:21:42;;;;;;;2.47;1.17;;;;;;;;;;4919719;29;20498;-71
2021/06/14 04:24:08;;;;;;;1.48;1.00;;;;;;;;;;4921281;29;20034;-71
2021/06/14 04:26:33;;;;;;;3.90;1.10;;;;;;;;;;4871502;29;20037;-71
2021/06/14 04:28:58;;;;;;;2.00;1.10;;;;;;;;;;4923492;29;20028;-71
2021/06/14 04:31:23;;;;;;;4.30;1.33;;;;;;;;;;4919720;29;20083;-72
2021/06/14 04:33:49;;;;;;;4.53;1.67;;;;;;;;;;4925239;29;20041;-72
2021/06/14 04:36:14;;;;;;;2.80;1.40;;;;;;;;;;4921088;29;20096;-69
2021/06/14 04:38:39;;;;;;;2.45;1.40;;;;;;;;;;4916149;29;20270;-71
2021/06/14 04:41:04;;;;;;;3.63;1.00;;;;;;;;;;4917716;29;20040;-70
2021/06/14 04:43:30;;;;;;;1.60;1.23;;;;;;;;;;4921201;29;20280;-71
2021/06/14 04:45:55;;;;;;;3.45;1.25;;;;;;;;;;4921319;29;20032;-71
2021/06/14 04:48:20;;;;;;;2.20;1.07;;;;;;;;;;4917989;29;20023;-70
2021/06/14 04:50:46;;;;;;;5.33;1.10;;;;;;;;;;4924424;29;20020;-71
2021/06/14 04:53:11;;;;;;;1.90;0.95;;;;;;;;;;4916832;29;20111;-71
2021/06/14 04:55:36;;;;;;;2.97;1.20;;;;;;;;;;4917349;29;20027;-73
2021/06/14 04:58:01;;;;;;;1.80;1.10;;;;;;;;;;4916360;29;20347;-71
2021/06/14 05:00:28;;;;;;;3.05;1.40;;;;;;;;;;4945843;29;20137;-71
2021/06/14 05:02:53;;;;;;;2.90;1.48;;;;;;;;;;4950076;28;20090;-72
2021/06/14 05:05:19;;;;;;;2.13;1.20;;;;;;;;;;4950740;28;20058;-70
2021/06/14 05:07:44;;;;;;;2.60;1.00;;;;;;;;;;4951521;29;20087;-69
2021/06/14 05:10:10;;;;;;;3.53;1.27;;;;;;;;;;4950230;28;20638;-69
2021/06/14 05:12:35;;;;;;;3.42;1.35;;;;;;;;;;4950883;28;20641;-69
2021/06/14 05:15:00;;;;;;;3.42;1.27;;;;;;;;;;4951069;28;20019;-69
2021/06/14 05:17:26;;;;;;;1.97;1.10;;;;;;;;;;4950549;28;20406;-70
2021/06/14 05:19:51;;;;;;;3.60;1.08;;;;;;;;;;4950191;28;20406;-68
2021/06/14 05:22:16;;;;;;;1.98;1.35;;;;;;;;;;4950841;28;20019;-71
2021/06/14 05:24:41;;;;;;;1.87;1.07;;;;;;;;;;4950669;28;20563;-70
2021/06/14 05:27:07;;;;;;;2.03;1.10;;;;;;;;;;4950320;29;20502;-69
2021/06/14 05:29:32;;;;;;;2.05;1.05;;;;;;;;;;4950437;28;20665;-71
2021/06/14 05:31:58;;;;;;;2.53;1.13;;;;;;;;;;4950736;29;20038;-71
2021/06/14 05:34:23;;;;;;;1.50;1.10;;;;;;;;;;4949092;29;20749;-71
2021/06/14 05:36:48;;;;;;;1.63;1.05;;;;;;;;;;4950477;28;20023;-70
2021/06/14 05:39:13;;;;;;;2.03;1.37;;;;;;;;;;4950577;29;20027;-70
2021/06/14 05:41:39;;;;;;;2.93;1.20;;;;;;;;;;4949769;29;20863;-71
2021/06/14 05:44:04;;;;;;;2.42;0.98;;;;;;;;;;4943575;28;20035;-70
2021/06/14 05:46:29;;;;;;;1.80;1.10;;;;;;;;;;4945659;29;20090;-71
2021/06/14 05:48:55;;;;;;;4.25;1.35;;;;;;;;;;4949590;28;20014;-69
2021/06/14 05:51:20;;;;;;;1.80;1.10;;;;;;;;;;4948948;29;20034;-69
2021/06/14 05:53:48;;;;;;;2.13;1.13;;;;;;;;;;4942147;29;20038;-71
2021/06/14 05:56:13;;;;;;;2.88;1.17;;;;;;;;;;4944273;29;20551;-71
2021/06/14 05:58:38;;;;;;;3.10;1.15;;;;;;;;;;4948711;28;20056;-71
2021/06/14 06:01:04;;;;;;;3.33;1.10;;;;;;;;;;4949890;28;20512;-70
2021/06/14 06:03:29;;;;;;;2.83;1.20;;;;;;;;;;4949456;29;20055;-71
2021/06/14 06:05:54;;;;;;;3.72;1.40;;;;;;;;;;4949349;28;20654;-71
2021/06/14 06:08:19;;;;;;;1.93;1.20;;;;;;;;;;4932985;29;20023;-70
2021/06/14 06:10:45;;;;;;;4.23;1.20;;;;;;;;;;4923228;29;20280;-72
2021/06/14 06:13:10;;;;;;;1.67;1.10;;;;;;;;;;4920490;29;20083;-70
2021/06/14 06:15:52;;;;;;;1.73;1.17;;;;;;;;;;4921251;29;20031;-79
2021/06/14 06:18:17;;;;;;;4.13;1.27;;;;;;;;;;4929678;28;20027;-68
2021/06/14 06:20:42;;;;;;;2.13;1.20;;;;;;;;;;4912959;29;20032;-68
2021/06/14 06:23:08;;;;;;;3.63;1.30;;;;;;;;;;4923385;29;20031;-68
2021/06/14 06:25:33;;;;;;;2.63;1.17;;;;;;;;;;4921902;29;20304;-69
2021/06/14 06:27:58;;;;;;;2.17;1.08;;;;;;;;;;4924822;29;20031;-68
2021/06/14 06:30:26;;;;;;;2.27;1.03;;;;;;;;;;4916486;29;20028;-67
2021/06/14 06:32:51;;;;;;;2.63;1.23;;;;;;;;;;4924380;29;20380;-68
2021/06/14 06:35:17;;;;;;;2.22;1.15;;;;;;;;;;4924343;29;20034;-68
2021/06/14 06:37:42;;;;;;;3.40;1.27;;;;;;;;;;4921996;29;20031;-68
2021/06/14 06:40:07;;;;;;;2.63;1.17;;;;;;;;;;4924686;29;20137;-68
2021/06/14 06:42:33;;;;;;;1.70;1.20;;;;;;;;;;4922966;28;20028;-68
2021/06/14 06:44:58;;;;;;;1.85;1.30;;;;;;;;;;4918758;29;20067;-68
2021/06/14 06:47:24;;;;;;;1.52;1.20;;;;;;;;;;4913859;29;20113;-68
2021/06/14 06:49:49;;;;;;;2.05;1.02;;;;;;;;;;4926973;29;20028;-68
2021/06/14 06:52:14;;;;;;;1.73;1.20;;;;;;;;;;4922325;29;20087;-68
2021/06/14 06:54:39;;;;;;;1.35;0.95;;;;;;;;;;4920232;29;20042;-68
2021/06/14 06:57:05;;;;;;;5.20;1.60;;;;;;;;;;4913882;28;20058;-68
2021/06/14 06:59:30;;;;;;;1.80;1.25;;;;;;;;;;4920359;28;20020;-67
2021/06/14 07:01:56;;;;;;;3.93;1.10;;;;;;;;;;4918232;29;20095;-68
2021/06/14 07:04:21;;;;;;;1.73;1.20;;;;;;;;;;4918561;29;20311;-68
2021/06/14 07:06:46;;;;;;;1.85;1.23;;;;;;;;;;4917812;28;20032;-68
2021/06/14 07:09:12;;;;;;;2.53;1.20;;;;;;;;;;4923073;28;20012;-68
2021/06/14 07:11:37;;;;;;;4.30;1.20;;;;;;;;;;4924463;29;20557;-68
2021/06/14 07:14:02;;;;;;;3.03;1.25;;;;;;;;;;4916535;29;20043;-68
2021/06/14 07:16:28;;;;;;;2.17;1.35;;;;;;;;;;4928682;29;20028;-68
2021/06/14 07:18:56;;;;;;;1.83;1.10;;;;;;;;;;4931096;29;20790;-68
2021/06/14 07:21:22;;;;;;;2.08;1.08;;;;;;;;;;4928268;29;20051;-67
2021/06/14 07:23:47;;;;;;;2.05;0.85;;;;;;;;;;4931231;29;20066;-68
2021/06/14 07:26:13;;;;;;;2.50;1.10;;;;;;;;;;4933456;29;20024;-67
2021/06/14 07:28:38;;;;;;;2.22;1.08;;;;;;;;;;4923600;29;20074;-68
2021/06/14 07:31:03;;;;;;;2.10;0.90;;;;;;;;;;4928136;29;20042;-67
2021/06/14 07:33:29;;;;;;;3.30;0.90;;;;;;;;;;4930848;29;20270;-68
2021/06/14 07:35:54;;;;;;;2.58;1.38;;;;;;;;;;4929857;29;20032;-67
2021/06/14 07:38:19;;;;;;;1.40;1.10;;;;;;;;;;4931736;29;20031;-68
2021/06/14 07:40:45;;;;;;;2.13;1.23;;;;;;;;;;4930889;29;20035;-68
2021/06/14 07:43:12;;;;;;;2.92;1.35;;;;;;;;;;4931110;29;20042;-68
2021/06/14 07:45:40;;;;;;;3.17;1.20;;;;;;;;;;4927421;29;20577;-68
2021/06/14 07:48:06;;;;;;;2.35;1.38;;;;;;;;;;4909754;29;20035;-68
2021/06/14 07:50:31;;;;;;;2.08;1.00;;;;;;;;;;4910556;29;20032;-68
2021/06/14 07:52:56;;;;;;;2.35;1.00;;;;;;;;;;4910685;29;20130;-68
2021/06/14 07:55:23;;;;;;;2.13;1.07;;;;;;;;;;4909743;29;20199;-71
2021/06/14 07:57:48;;;;;;;2.38;1.40;;;;;;;;;;4915939;29;20027;-75
2021/06/14 08:00:13;;;;;;;1.97;0.90;;;;;;;;;;4918738;29;20043;-68
2021/06/14 08:02:42;;;;;;;1.38;1.20;;;;;;;;;;4929480;29;20047;-68
2021/06/14 08:05:07;;;;;;;1.85;1.08;;;;;;;;;;4927700;29;20418;-67
2021/06/14 08:07:33;;;;;;;2.25;1.10;;;;;;;;;;4931029;29;20028;-67
2021/06/14 08:10:03;;;;;;;2.28;1.00;;;;;;;;;;4927157;29;20032;-67
2021/06/14 08:12:30;;;;;;;2.22;1.15;;;;;;;;;;4930218;29;20031;-68
2021/06/14 08:14:55;;;;;;;1.90;1.00;;;;;;;;;;4929974;29;20514;-67
2021/06/14 08:17:21;;;;;;;2.38;0.90;;;;;;;;;;4920857;29;20024;-67
2021/06/14 08:19:52;;;;;;;3.00;1.20;;;;;;;;;;4929245;29;20122;-67
2021/06/14 08:25:05;;;;;;;1.27;0.98;;;;;;;;;;4911376;29;20043;-67
2021/06/14 08:27:31;;;;;;;2.47;1.10;;;;;;;;;;4910909;29;20079;-68
2021/06/14 08:29:56;;;;;;;2.53;1.38;;;;;;;;;;4924201;29;20378;-69
2021/06/14 08:32:22;;;;;;;1.57;1.00;;;;;;;;;;4929983;29;20091;-69
2021/06/14 08:34:47;;;;;;;1.50;0.90;;;;;;;;;;4930528;29;20517;-69
2021/06/14 08:37:12;;;;;;;1.98;1.50;;;;;;;;;;4919669;29;20558;-71
2021/06/14 08:39:38;;;;;;;1.85;1.13;;;;;;;;;;4930353;29;20028;-70
2021/06/14 08:42:03;;;;;;;3.03;1.00;;;;;;;;;;4918080;29;20172;-70
2021/06/14 08:44:28;;;;;;;1.60;1.25;;;;;;;;;;4919976;29;20327;-70
2021/06/14 08:46:54;;;;;;;3.20;1.10;;;;;;;;;;4910984;29;20024;-72
2021/06/14 08:49:19;;;;;;;2.55;0.75;;;;;;;;;;4910839;29;20358;-70
2021/06/14 08:51:44;;;;;;;1.45;0.95;;;;;;;;;;4929571;29;20031;-72
2021/06/14 08:54:10;;;;;;;2.30;1.07;;;;;;;;;;4944040;29;20031;-70
2021/06/14 08:56:35;;;;;;;1.47;0.90;;;;;;;;;;4929533;29;20375;-70
2021/06/14 08:59:00;;;;;;;2.03;1.27;;;;;;;;;;4923286;29;20059;-71
2021/06/14 09:01:27;;;;;;;2.90;1.25;;;;;;;;;;4916083;29;20020;-71
2021/06/14 09:03:52;;;;;;;2.45;1.10;;;;;;;;;;4911133;29;20056;-71
2021/06/14 09:06:18;;;;;;;1.77;1.00;;;;;;;;;;4922817;29;20074;-70
2021/06/14 09:08:54;;;;;;;2.77;1.13;;;;;;;;;;4931912;29;20087;-70
2021/06/14 09:11:19;;;;;;;2.92;1.40;;;;;;;;;;4923865;29;20816;-69
2021/06/14 09:13:44;;;;;;;2.20;1.10;;;;;;;;;;4926447;28;20055;-71
2021/06/14 09:16:11;;;;;;;2.60;1.30;;;;;;;;;;4928517;29;20093;-72
2021/06/14 09:18:36;;;;;;;2.35;1.25;;;;;;;;;;4941895;29;20038;-70
2021/06/14 09:21:02;;;;;;;2.42;1.10;;;;;;;;;;4928864;29;20428;-72
2021/06/14 09:23:38;;;;;;;1.48;1.10;;;;;;;;;;4928867;29;20034;-72
2021/06/14 09:26:04;;;;;;;2.85;1.33;;;;;;;;;;4926569;29;20024;-73
2021/06/14 09:28:29;;;;;;;2.00;1.10;;;;;;;;;;4921276;29;20024;-73
2021/06/14 09:30:54;;;;;;;2.97;1.05;;;;;;;;;;4915224;29;20426;-71
2021/06/14 09:33:21;;;;;;;2.70;1.20;;;;;;;;;;4935804;29;20030;-71
2021/06/14 09:35:46;;;;;;;1.48;1.02;;;;;;;;;;4929639;29;20730;-70
2021/06/14 09:38:13;;;;;;;3.80;1.20;;;;;;;;;;4940940;29;20054;-70
2021/06/14 09:40:45;;;;;;;2.33;1.08;;;;;;;;;;4910167;29;20358;-70
2021/06/14 09:43:21;;;;;;;1.98;1.30;;;;;;;;;;4916165;29;20403;-70
2021/06/14 09:45:46;;;;;;;2.55;1.23;;;;;;;;;;4914566;29;20020;-70
2021/06/14 09:48:18;;;;;;;3.80;1.10;;;;;;;;;;4910789;29;20035;-70
2021/06/14 09:50:44;;;;;;;2.58;1.45;;;;;;;;;;4913928;29;20422;-70
2021/06/14 09:53:10;;;;;;;2.60;1.10;;;;;;;;;;4916705;29;20031;-71
2021/06/14 09:55:36;;;;;;;1.98;1.20;;;;;;;;;;4914881;29;20040;-70
2021/06/14 09:58:10;;;;;;;3.10;1.00;;;;;;;;;;4914719;29;20035;-70
2021/06/14 10:00:36;;;;;;;4.40;1.00;;;;;;;;;;4916260;29;20046;-70
2021/06/14 10:03:01;;;;;;;4.73;1.30;;;;;;;;;;4925777;29;20056;-70
2021/06/14 10:05:26;;;;;;;2.03;1.07;;;;;;;;;;4913443;29;20020;-70
2021/06/14 10:07:52;;;;;;;2.22;1.10;;;;;;;;;;4932722;28;20106;-70
2021/06/14 10:10:25;;;;;;;3.00;1.20;;;;;;;;;;4925886;29;20170;-71
2021/06/14 10:12:51;;;;;;;1.65;0.90;;;;;;;;;;4925514;29;20027;-70
2021/06/14 10:15:17;;;;;;;3.15;0.90;;;;;;;;;;4921019;29;20558;-70
2021/06/14 10:17:42;;;;;;;1.67;0.90;;;;;;;;;;4911743;29;20059;-70
2021/06/14 10:20:07;;;;;;;3.05;1.10;;;;;;;;;;4938093;29;20357;-70
2021/06/14 10:22:32;;;;;;;3.20;1.10;;;;;;;;;;4917907;29;20415;-72
2021/06/14 10:24:58;;;;;;;1.70;0.93;;;;;;;;;;4911822;29;20032;-72
2021/06/14 10:27:23;;;;;;;3.77;1.10;;;;;;;;;;4911255;29;20114;-72
2021/06/14 10:29:48;;;;;;;1.98;1.02;;;;;;;;;;4914940;29;20267;-69
2021/06/14 10:32:13;;;;;;;1.60;1.33;;;;;;;;;;4931887;28;20790;-72
2021/06/14 10:34:39;;;;;;;2.30;1.40;;;;;;;;;;4914167;29;20020;-71
2021/06/14 10:37:04;;;;;;;2.00;1.05;;;;;;;;;;4909414;29;20024;-71
2021/06/14 10:39:29;;;;;;;5.90;1.20;;;;;;;;;;4915361;29;20028;-71
2021/06/14 10:41:55;;;;;;;2.22;1.02;;;;;;;;;;4914117;29;20039;-71
2021/06/14 10:44:20;;;;;;;2.38;1.02;;;;;;;;;;4933348;28;20054;-71
2021/06/14 10:46:46;;;;;;;2.35;1.08;;;;;;;;;;4918607;29;20019;-71
2021/06/14 10:49:12;;;;;;;2.30;1.10;;;;;;;;;;4912554;29;20046;-71
2021/06/14 10:51:37;;;;;;;2.00;1.35;;;;;;;;;;4917432;29;20063;-71
2021/06/14 10:54:06;;;;;;;1.83;1.00;;;;;;;;;;4914421;29;20059;-71
2021/06/14 10:56:31;;;;;;;2.45;1.10;;;;;;;;;;4913586;29;20276;-71
2021/06/14 10:58:57;;;;;;;3.03;1.17;;;;;;;;;;4914423;29;20036;-71
2021/06/14 11:01:31;;;;;;;2.53;0.90;;;;;;;;;;4921964;29;20020;-71
2021/06/14 11:03:57;;;;;;;3.13;1.13;;;;;;;;;;4916109;29;20064;-71
2021/06/14 11:06:26;;;;;;;3.20;1.50;;;;;;;;;;4938528;28;20099;-72
2021/06/14 11:08:55;;;;;;;2.95;1.20;;;;;;;;;;4914973;29;20091;-72
2021/06/14 11:11:20;;;;;;;2.50;1.60;;;;;;;;;;4912971;29;20492;-72
2021/06/14 11:13:46;;;;;;;2.67;1.30;;;;;;;;;;4914186;29;20051;-74
2021/06/14 11:16:11;;;;;;;2.17;1.40;;;;;;;;;;4916345;29;20028;-70
2021/06/14 11:18:36;;;;;;;3.00;1.60;;;;;;;;;;4916752;29;20020;-68
2021/06/14 11:21:07;;;;;;;3.90;1.40;;;;;;;;;;4915272;29;20023;-68
2021/06/14 11:23:33;;;;;;;4.88;1.70;;;;;;;;;;4921432;29;20299;-68
2021/06/14 11:25:58;;;;;;;5.20;1.87;;;;;;;;;;4914215;29;20024;-68
2021/06/14 11:28:33;;;;;;;2.30;1.42;;;;;;;;;;4914002;29;20032;-68
2021/06/14 11:30:59;;;;;;;3.60;1.92;;;;;;;;;;4918231;29;20111;-67
2021/06/14 11:33:26;;;;;;;4.78;1.85;;;;;;;;;;4913450;29;20115;-67
2021/06/14 11:35:51;;;;;;;4.72;1.95;;;;;;;;;;4943823;28;20087;-67
2021/06/14 11:38:18;;;;;;;3.90;1.77;;;;;;;;;;4921612;29;21433;-68
2021/06/14 11:40:48;;;;;;;5.30;1.90;;;;;;;;;;4920537;29;20315;-68
2021/06/14 11:43:13;;;;;;;3.90;2.15;;;;;;;;;;4920947;29;20053;-67
2021/06/14 11:45:41;;;;;;;3.70;1.80;;;;;;;;;;4915006;29;20478;-67
2021/06/14 11:48:17;;;;;;;5.00;1.65;;;;;;;;;;4927961;29;20557;-68
2021/06/14 11:50:42;;;;;;;3.60;1.50;;;;;;;;;;4919990;29;20032;-69
2021/06/14 11:53:07;;;;;;;3.28;1.60;;;;;;;;;;4913504;29;20039;-68
2021/06/14 11:55:34;;;;;;;2.95;1.92;;;;;;;;;;4937631;28;20115;-68
2021/06/14 11:57:59;;;;;;;4.63;1.95;;;;;;;;;;4926672;29;20060;-68
2021/06/14 12:00:25;;;;;;;3.13;1.70;;;;;;;;;;4927495;29;20031;-68
2021/06/14 12:02:50;;;;;;;5.47;1.87;;;;;;;;;;4914907;29;20715;-68
2021/06/14 12:05:15;;;;;;;3.80;1.70;;;;;;;;;;4916915;29;20376;-68
2021/06/14 12:07:41;;;;;;;4.40;1.73;;;;;;;;;;4927952;29;20591;-68
2021/06/14 12:10:08;;;;;;;10.68;2.03;;;;;;;;;;4930255;29;20083;-73
2021/06/14 12:12:35;;;;;;;4.75;1.65;;;;;;;;;;4922283;29;20123;-73
2021/06/14 12:15:00;;;;;;;3.33;1.30;;;;;;;;;;4929763;29;20035;-72
2021/06/14 12:17:29;;;;;;;5.50;1.83;;;;;;;;;;4918833;29;20032;-73
2021/06/14 12:19:54;;;;;;;7.60;1.70;;;;;;;;;;4930142;28;20725;-75
2021/06/14 12:22:20;;;;;;;3.25;1.98;;;;;;;;;;4925167;29;20103;-67
2021/06/14 12:24:45;;;;;;;4.20;1.95;;;;;;;;;;4932023;28;20028;-67
2021/06/14 12:27:10;;;;;;;5.20;1.50;;;;;;;;;;4923750;29;20019;-67
2021/06/14 12:29:37;;;;;;;3.28;1.48;;;;;;;;;;4930848;29;20573;-67
2021/06/14 12:32:06;;;;;;;4.00;1.80;;;;;;;;;;4926756;28;20112;-67
2021/06/14 12:34:32;;;;;;;3.78;1.60;;;;;;;;;;4915634;29;20028;-67
2021/06/14 12:36:58;;;;;;;3.08;1.45;;;;;;;;;;4912040;29;20410;-67
2021/06/14 12:39:23;;;;;;;4.78;1.30;;;;;;;;;;4927772;29;20027;-67
2021/06/14 12:41:48;;;;;;;5.20;1.90;;;;;;;;;;4930460;29;20030;-66
2021/06/14 12:44:14;;;;;;;3.60;1.38;;;;;;;;;;4916303;29;20032;-66
2021/06/14 12:46:39;;;;;;;4.33;1.40;;;;;;;;;;4920887;29;20024;-67
2021/06/14 12:49:04;;;;;;;3.53;1.73;;;;;;;;;;4911126;29;20268;-67
2021/06/14 12:51:33;;;;;;;2.58;1.50;;;;;;;;;;4941411;29;20019;-67
2021/06/14 12:53:58;;;;;;;2.42;1.30;;;;;;;;;;4929782;29;20036;-67
2021/06/14 12:56:24;;;;;;;2.57;1.30;;;;;;;;;;4930231;29;20028;-67
2021/06/14 12:58:49;;;;;;;3.38;1.63;;;;;;;;;;4922944;29;20284;-66
2021/06/14 13:01:20;;;;;;;2.73;1.50;;;;;;;;;;4911247;29;20035;-67
2021/06/14 13:03:45;;;;;;;3.80;1.40;;;;;;;;;;4939250;28;20043;-67
2021/06/14 13:06:10;;;;;;;4.67;1.10;;;;;;;;;;4944348;29;20027;-67
2021/06/14 13:08:39;;;;;;;3.43;1.33;;;;;;;;;;4929946;29;20805;-67
2021/06/14 13:11:04;;;;;;;2.30;1.35;;;;;;;;;;4929540;29;20091;-70
2021/06/14 13:13:35;;;;;;;3.47;1.25;;;;;;;;;;4925512;29;20028;-71
2021/06/14 13:16:10;;;;;;;2.40;1.25;;;;;;;;;;4935242;28;20966;-67
2021/06/14 13:18:37;;;;;;;3.28;1.48;;;;;;;;;;4931591;29;20031;-66
2021/06/14 13:21:06;;;;;;;4.07;1.30;;;;;;;;;;4933268;29;20055;-67
2021/06/14 13:23:31;;;;;;;3.88;1.38;;;;;;;;;;4925382;29;20115;-69
2021/06/14 13:25:58;;;;;;;6.00;2.50;;;;;;;;;;4929919;29;20122;-66
2021/06/14 13:28:29;;;;;;;2.40;1.00;;;;;;;;;;4930034;29;20264;-67
2021/06/14 13:30:54;;;;;;;4.18;1.30;;;;;;;;;;4929741;29;20703;-67
2021/06/14 13:33:21;;;;;;;4.20;1.38;;;;;;;;;;4912995;29;20228;-67
2021/06/14 13:35:50;;;;;;;3.42;1.50;;;;;;;;;;4940686;29;20055;-66
2021/06/14 13:38:26;;;;;;;3.65;1.55;;;;;;;;;;4928576;29;20517;-66
2021/06/14 13:40:51;;;;;;;3.40;1.45;;;;;;;;;;4943972;28;20498;-69
2021/06/14 13:43:26;;;;;;;5.07;1.60;;;;;;;;;;4915387;29;20028;-66
2021/06/14 13:45:51;;;;;;;4.38;1.27;;;;;;;;;;4929227;29;20037;-67
2021/06/14 13:48:20;;;;;;;2.75;1.17;;;;;;;;;;4944055;29;20027;-66
2021/06/14 13:50:45;;;;;;;4.57;1.90;;;;;;;;;;4929110;29;20058;-66
2021/06/14 13:53:11;;;;;;;4.28;1.70;;;;;;;;;;4917550;29;20067;-66
2021/06/14 13:55:37;;;;;;;5.05;1.48;;;;;;;;;;4911595;29;20016;-67
2021/06/14 13:58:02;;;;;;;8.25;1.70;;;;;;;;;;4910128;29;20497;-67
2021/06/14 14:00:28;;;;;;;6.43;1.95;;;;;;;;;;4912048;29;20032;-67
2021/06/14 14:02:55;;;;;;;4.82;1.40;;;;;;;;;;4910063;29;20047;-66
2021/06/14 14:05:21;;;;;;;4.18;1.48;;;;;;;;;;4927835;29;20110;-67
2021/06/14 14:07:47;;;;;;;2.33;1.27;;;;;;;;;;4932593;28;20027;-66
2021/06/14 14:10:12;;;;;;;2.17;1.00;;;;;;;;;;4928547;29;20039;-66
2021/06/14 14:12:37;;;;;;;4.30;1.67;;;;;;;;;;4912844;29;20055;-67
2021/06/14 14:15:03;;;;;;;5.03;1.53;;;;;;;;;;4909837;29;20276;-67
2021/06/14 14:17:28;;;;;;;2.65;1.40;;;;;;;;;;4910039;29;20050;-66
2021/06/14 14:19:54;;;;;;;4.40;1.30;;;;;;;;;;4936420;29;20032;-66
2021/06/14 14:22:19;;;;;;;4.80;1.50;;;;;;;;;;4939938;29;20585;-66
2021/06/14 14:24:44;;;;;;;2.72;1.10;;;;;;;;;;4909835;29;20081;-67
2021/06/14 14:27:10;;;;;;;2.17;1.20;;;;;;;;;;4910102;29;20028;-66
2021/06/14 14:29:36;;;;;;;3.70;1.27;;;;;;;;;;4929360;29;20093;-67
2021/06/14 14:32:03;;;;;;;2.85;1.20;;;;;;;;;;4942948;29;20335;-66
2021/06/14 14:34:41;;;;;;;3.47;1.40;;;;;;;;;;4936328;29;20032;-66
2021/06/14 14:37:07;;;;;;;4.32;1.95;;;;;;;;;;4926870;29;20127;-66
2021/06/14 14:39:35;;;;;;;7.53;5.18;;;;;;;;;;4943148;29;20213;-80
2021/06/14 14:42:00;;;;;;;10.68;6.80;;;;;;;;;;4942581;28;20031;-67